Strona główna
METAR-TAF:

METAR-TAF

Lotnisko :

Port lotniczy Male

Male, Malediwy

Szerokość geograficzna: 04-12N, Długość geograficzna: 073-32E, wysokość: 2 m

Aktualna obserwacja pogody

Raport powstał 45 minut temu, godzina 17:00 UTC
Wiatr 6 kt od wschodnio-północny wschód
Temperatura 27°C
Wilgotność 70%
Ciśnienie 1014 hPa
Widzialność 10 km lub więcej
Mało chmury na wysokości 1900 ft

METAR: VRMM 231700Z 06006KT 9999 FEW019 27/21 Q1014 NOSIG

czas: 22:45 (17:45 UTC)

Prognoza

Raport powstał 45 minut temu, godzina 17:00 UTC
Prognoza ważna od 23 godzina 18 UTC do 24 godzina 24 UTC
Wiatr 9 kt od północny wschód
Widzialność: 8000 m
Mało chmury na wysokości 1900 ft

TAF: VRMM 231700Z 2318/2424 05009KT 8000 FEW019

Obserwacja i prognoza pogody dla ponad 4000 lotnisk (raport METAR i TAF).

Dostępne stacje oznaczono żółtymi i czerwonymi punktami na mapie.

Najedź kursorem aby zobaczyć nazwę stacji.

Kliknij aby zobaczyć obserwacje i prognozy pogody.

Aby zmienić mapę: kliknij na zielony przycisk z czarnym krzyżykiem, aby powiększyć; na zielony przycisk z myślnikiem, aby pomniejszyć; na zielone strzałki, aby przejść do map sąsiednich.


METAR-TAF: